createdAt,value
2019-01-24T00:01:15.848Z,70.50
2019-01-24T00:03:45.316Z,84.80
2019-01-24T00:06:14.697Z,74.20
2019-01-24T00:08:43.920Z,89.03
2019-01-24T00:11:13.937Z,75.43
2019-01-24T00:13:43.954Z,85.10
2019-01-24T00:16:13.635Z,83.03
2019-01-24T00:18:44.883Z,81.63
2019-01-24T00:21:14.876Z,89.10
2019-01-24T00:23:44.297Z,80.70
2019-01-24T00:26:13.777Z,74.13
2019-01-24T00:28:44.776Z,86.67
2019-01-24T00:31:16.805Z,81.33
2019-01-24T00:33:46.196Z,74.00
2019-01-24T00:36:26.056Z,74.60
2019-01-24T00:38:55.081Z,70.90
2019-01-24T00:41:26.036Z,70.23
2019-01-24T00:43:57.517Z,61.90
2019-01-24T00:46:30.625Z,71.87
2019-01-24T00:49:00.485Z,75.07
2019-01-24T00:51:29.877Z,77.40
2019-01-24T00:54:02.135Z,78.10
2019-01-24T00:56:31.437Z,76.77
2019-01-24T00:59:01.117Z,74.03
2019-01-24T01:01:30.544Z,71.47
2019-01-24T01:03:59.744Z,67.07
2019-01-24T01:06:28.804Z,78.13
2019-01-24T01:08:59.102Z,75.57
2019-01-24T01:11:28.322Z,76.53
2019-01-24T01:13:59.664Z,74.80
2019-01-24T01:16:28.639Z,83.10
2019-01-24T01:18:59.079Z,77.93
2019-01-24T01:21:28.678Z,81.33
2019-01-24T01:23:57.936Z,79.70
2019-01-24T01:26:27.498Z,73.40
2019-01-24T01:28:56.659Z,72.93
2019-01-24T01:31:26.299Z,81.37
2019-01-24T01:33:55.736Z,79.17
2019-01-24T01:36:25.288Z,77.73
2019-01-24T01:38:56.198Z,80.83
2019-01-24T01:41:35.998Z,76.87
2019-01-24T01:44:05.657Z,75.63
2019-01-24T01:46:34.879Z,76.03
2019-01-24T01:49:09.820Z,74.93
2019-01-24T01:51:42.399Z,81.77
2019-01-24T01:54:13.140Z,82.67
2019-01-24T01:56:42.478Z,83.73
2019-01-24T01:59:16.338Z,90.20
2019-01-24T02:01:45.581Z,77.60
2019-01-24T02:04:18.681Z,87.10
2019-01-24T02:06:49.502Z,85.60
2019-01-24T02:09:18.722Z,82.93
2019-01-24T02:11:48.721Z,78.00
2019-01-24T02:14:18.124Z,77.60
2019-01-24T02:16:47.102Z,75.07
2019-01-24T02:19:19.021Z,84.13
2019-01-24T02:21:48.438Z,78.03
2019-01-24T02:24:18.102Z,77.67
2019-01-24T02:26:50.601Z,80.63
2019-01-24T02:29:21.502Z,84.77
2019-01-24T02:31:53.582Z,76.33
2019-01-24T02:34:22.677Z,83.70
2019-01-24T02:36:52.359Z,77.83
2019-01-24T02:39:22.097Z,78.43
2019-01-24T02:41:51.077Z,81.90
2019-01-24T02:44:20.897Z,76.90
2019-01-24T02:46:50.084Z,80.70
2019-01-24T02:49:19.958Z,86.70
2019-01-24T02:51:49.377Z,97.50
2019-01-24T02:54:21.857Z,74.63
2019-01-24T02:56:51.741Z,85.57
2019-01-24T02:59:24.484Z,80.07
2019-01-24T03:01:53.924Z,86.37
2019-01-24T03:04:25.812Z,92.00
2019-01-24T03:06:54.966Z,86.27
2019-01-24T03:09:26.383Z,85.70
2019-01-24T03:11:56.047Z,82.63
2019-01-24T03:14:32.322Z,86.30
2019-01-24T03:17:01.743Z,81.97
2019-01-24T03:19:35.002Z,82.73
2019-01-24T03:22:10.883Z,78.80
2019-01-24T03:24:40.183Z,77.93
2019-01-24T03:27:09.423Z,74.13
2019-01-24T03:29:38.803Z,73.40
2019-01-24T03:32:08.311Z,63.93
2019-01-24T03:34:38.604Z,68.07
2019-01-24T03:37:09.742Z,61.57
2019-01-24T03:39:38.784Z,66.33
2019-01-24T03:42:08.004Z,69.20
2019-01-24T03:44:37.777Z,63.73
2019-01-24T03:47:07.199Z,57.90
2019-01-24T03:49:37.894Z,56.33
2019-01-24T03:52:07.357Z,66.27
2019-01-24T03:54:36.561Z,67.10
2019-01-24T03:57:08.997Z,66.07
2019-01-24T03:59:40.699Z,63.87
2019-01-24T04:02:10.547Z,65.57
2019-01-24T04:04:41.876Z,76.30
2019-01-24T04:07:11.596Z,70.33
2019-01-24T04:09:40.815Z,67.53
2019-01-24T04:12:11.596Z,66.43
2019-01-24T04:14:41.256Z,70.13
2019-01-24T04:17:10.615Z,57.77
2019-01-24T04:19:40.056Z,62.47
2019-01-24T04:22:09.456Z,56.17
2019-01-24T04:24:38.999Z,52.17
2019-01-24T04:27:09.836Z,57.40
2019-01-24T04:29:39.497Z,58.57
2019-01-24T04:32:11.696Z,59.30
2019-01-24T04:34:40.756Z,53.40
2019-01-24T04:37:09.977Z,56.73
2019-01-24T04:39:42.084Z,60.03
2019-01-24T04:42:12.936Z,62.80
2019-01-24T04:44:42.253Z,58.10
2019-01-24T04:47:11.597Z,62.43
2019-01-24T04:49:41.116Z,58.87
2019-01-24T04:52:10.567Z,67.23
2019-01-24T04:54:39.896Z,68.47
2019-01-24T04:57:09.119Z,57.63
2019-01-24T04:59:38.437Z,57.57
2019-01-24T05:02:07.918Z,57.27
2019-01-24T05:04:42.018Z,66.33
2019-01-24T05:07:14.798Z,58.93
2019-01-24T05:10:03.179Z,55.53
2019-01-24T05:12:32.578Z,55.43
2019-01-24T05:15:02.076Z,60.83
2019-01-24T05:17:31.121Z,59.77
2019-01-24T05:20:00.519Z,46.10
2019-01-24T05:22:30.378Z,53.07
2019-01-24T05:24:59.848Z,53.30
2019-01-24T05:27:28.957Z,56.97
2019-01-24T05:29:58.078Z,51.70
2019-01-24T05:32:27.159Z,52.53
2019-01-24T05:34:56.382Z,49.00
2019-01-24T05:37:25.518Z,45.87
2019-01-24T05:39:56.643Z,53.83
2019-01-24T05:42:25.798Z,52.93
2019-01-24T05:44:55.256Z,46.37
2019-01-24T05:47:24.579Z,48.30
2019-01-24T05:49:53.926Z,45.43
2019-01-24T05:52:23.319Z,46.17
2019-01-24T05:54:54.040Z,44.47
2019-01-24T05:57:23.380Z,47.07
2019-01-24T06:00:04.363Z,56.60
2019-01-24T06:02:33.906Z,48.53
2019-01-24T06:05:03.727Z,56.40
2019-01-24T06:07:35.028Z,47.17
2019-01-24T06:10:06.288Z,48.00
2019-01-24T06:12:35.746Z,50.70
2019-01-24T06:15:07.289Z,49.03
2019-01-24T06:17:40.527Z,45.93
2019-01-24T06:20:10.627Z,48.57
2019-01-24T06:22:41.608Z,45.13
2019-01-24T06:25:14.550Z,50.47
2019-01-24T06:27:47.193Z,41.73
2019-01-24T06:30:22.050Z,39.00
2019-01-24T06:32:51.522Z,43.90
2019-01-24T06:35:20.896Z,46.70
2019-01-24T06:37:51.957Z,46.67
2019-01-24T06:40:21.876Z,48.10
2019-01-24T06:42:52.557Z,50.50
2019-01-24T06:45:25.516Z,49.17
2019-01-24T06:47:54.875Z,47.37
2019-01-24T06:50:24.138Z,45.87
2019-01-24T06:52:53.677Z,44.60
2019-01-24T06:55:28.916Z,42.97
2019-01-24T06:57:58.657Z,46.47
2019-01-24T07:00:27.838Z,46.43
2019-01-24T07:02:58.638Z,48.40
2019-01-24T07:05:29.576Z,50.43
2019-01-24T07:08:00.079Z,47.93
2019-01-24T07:10:29.019Z,56.80
2019-01-24T07:12:58.560Z,61.73
2019-01-24T07:15:28.338Z,53.57
2019-01-24T07:17:57.647Z,66.10
2019-01-24T07:20:27.198Z,64.63
2019-01-24T07:22:56.577Z,60.30
2019-01-24T07:25:28.110Z,56.67
2019-01-24T07:27:57.099Z,49.83
2019-01-24T07:30:25.946Z,49.93
2019-01-24T07:35:40.747Z,51.10
2019-01-24T07:38:09.923Z,57.77
2019-01-24T07:40:39.118Z,52.63
2019-01-24T07:43:27.340Z,56.33
2019-01-24T07:45:56.859Z,46.53
2019-01-24T07:48:26.022Z,49.20
2019-01-24T07:50:55.044Z,51.30
2019-01-24T07:53:24.087Z,54.03
2019-01-24T07:55:53.608Z,50.27
2019-01-24T07:58:22.959Z,55.00
2019-01-24T08:00:52.211Z,51.17
2019-01-24T08:03:22.990Z,50.73
2019-01-24T08:05:52.142Z,49.13
2019-01-24T08:08:21.084Z,45.10
2019-01-24T08:10:50.270Z,46.57
2019-01-24T08:13:25.861Z,44.10
2019-01-24T08:15:54.906Z,48.07
2019-01-24T08:18:25.842Z,51.57
2019-01-24T08:20:55.143Z,47.83
2019-01-24T08:23:24.236Z,54.80
2019-01-24T08:25:53.198Z,49.30
2019-01-24T08:28:27.127Z,56.70
2019-01-24T08:30:56.618Z,53.33
2019-01-24T08:33:25.757Z,56.80
2019-01-24T08:35:57.279Z,53.63
2019-01-24T08:38:26.486Z,49.33
2019-01-24T08:40:57.398Z,51.60
2019-01-24T08:43:26.396Z,54.60
2019-01-24T08:45:55.362Z,52.17
2019-01-24T08:48:24.302Z,52.97
2019-01-24T08:50:56.703Z,52.87
2019-01-24T08:53:25.667Z,50.20
2019-01-24T08:55:54.560Z,51.43
2019-01-24T08:58:23.676Z,57.50
2019-01-24T09:00:52.987Z,48.53
2019-01-24T09:03:22.239Z,50.00
2019-01-24T09:05:51.776Z,49.07
2019-01-24T09:08:21.117Z,55.43
2019-01-24T09:10:56.177Z,49.00
2019-01-24T09:13:25.478Z,53.73
2019-01-24T09:15:54.716Z,50.60
2019-01-24T09:18:24.126Z,56.20
2019-01-24T09:20:53.437Z,51.40
2019-01-24T09:23:22.555Z,48.10
2019-01-24T09:25:51.661Z,53.67
2019-01-24T09:28:21.657Z,51.83
2019-01-24T09:30:52.489Z,54.90
2019-01-24T09:33:21.841Z,54.63
2019-01-24T09:35:51.358Z,56.07
2019-01-24T09:38:24.217Z,54.77
2019-01-24T09:40:53.200Z,53.67
2019-01-24T09:43:22.437Z,62.63
2019-01-24T09:45:51.516Z,58.63
2019-01-24T09:48:24.338Z,58.90
2019-01-24T09:50:53.736Z,53.93
2019-01-24T09:53:24.317Z,61.63
2019-01-24T09:55:54.878Z,63.00
2019-01-24T09:58:24.196Z,59.67
2019-01-24T10:00:53.799Z,57.50
2019-01-24T10:03:22.847Z,52.00
2019-01-24T10:05:51.856Z,57.60
2019-01-24T10:08:21.436Z,60.50
2019-01-24T10:10:50.537Z,62.23
2019-01-24T10:13:27.359Z,68.87
2019-01-24T10:15:56.800Z,68.00
2019-01-24T10:18:25.799Z,68.47
2019-01-24T10:20:54.821Z,65.73
2019-01-24T10:23:26.748Z,59.70
2019-01-24T10:25:55.969Z,55.20
2019-01-24T10:28:31.036Z,65.13
2019-01-24T10:31:01.758Z,59.30
2019-01-24T10:33:30.842Z,54.20
2019-01-24T10:35:59.943Z,61.87
2019-01-24T10:38:31.741Z,53.90
2019-01-24T10:41:00.721Z,43.87
2019-01-24T10:43:29.672Z,50.53
2019-01-24T10:45:58.635Z,50.67
2019-01-24T10:48:27.838Z,48.83
2019-01-24T10:50:56.918Z,51.60
2019-01-24T10:53:26.018Z,52.07
2019-01-24T10:55:55.367Z,49.50
2019-01-24T10:58:24.379Z,42.50
2019-01-24T11:00:59.557Z,49.77
2019-01-24T11:03:28.617Z,49.90
2019-01-24T11:05:57.638Z,41.83
2019-01-24T11:08:26.645Z,43.93
2019-01-24T11:10:55.738Z,51.43
2019-01-24T11:13:25.138Z,50.77
2019-01-24T11:15:54.475Z,44.30
2019-01-24T11:18:23.517Z,49.60
2019-01-24T11:20:53.518Z,53.70
2019-01-24T11:23:22.536Z,51.07
2019-01-24T11:25:51.476Z,52.90
2019-01-24T11:28:20.597Z,50.27
2019-01-24T11:30:49.597Z,39.23
2019-01-24T11:35:51.717Z,35.17
2019-01-24T11:38:21.057Z,38.27
2019-01-24T11:40:50.106Z,36.60
2019-01-24T11:43:19.163Z,43.60
2019-01-24T11:45:51.444Z,42.77
2019-01-24T11:48:20.572Z,40.80
2019-01-24T11:50:51.159Z,38.83
2019-01-24T11:53:19.167Z,43.37
2019-01-24T11:55:48.157Z,37.93
2019-01-24T11:58:17.477Z,37.70
2019-01-24T12:00:49.203Z,34.90
2019-01-24T12:03:17.703Z,53.00
2019-01-24T12:05:46.964Z,54.77
2019-01-24T12:08:22.383Z,53.57
2019-01-24T12:10:51.438Z,55.80
2019-01-24T12:15:55.367Z,52.17
2019-01-24T12:18:24.643Z,47.67
2019-01-24T12:20:54.082Z,50.13
2019-01-24T12:23:23.197Z,45.53
2019-01-24T12:25:52.596Z,45.90
2019-01-24T12:28:21.656Z,51.43
2019-01-24T12:30:51.006Z,49.17
2019-01-24T12:33:20.000Z,48.50
2019-01-24T12:35:49.005Z,50.27
2019-01-24T12:38:18.060Z,50.67
2019-01-24T12:40:47.375Z,52.43
2019-01-24T12:45:58.077Z,48.63
2019-01-24T12:48:27.147Z,54.73
2019-01-24T12:50:56.301Z,52.07
2019-01-24T12:53:25.764Z,56.70
2019-01-24T12:55:54.724Z,53.00
2019-01-24T12:58:30.225Z,50.33
2019-01-24T13:01:00.226Z,50.17
2019-01-24T13:03:29.447Z,52.23
2019-01-24T13:05:58.391Z,48.17
2019-01-24T13:08:27.837Z,48.47
2019-01-24T13:10:56.764Z,53.73
2019-01-24T13:13:25.685Z,56.27
2019-01-24T13:15:55.424Z,43.83
2019-01-24T13:18:24.610Z,47.90
2019-01-24T13:20:53.601Z,42.90
2019-01-24T13:23:25.149Z,47.87
2019-01-24T13:25:54.076Z,40.97
2019-01-24T13:28:23.046Z,40.97
2019-01-24T13:30:52.262Z,44.87
2019-01-24T13:33:21.558Z,41.43
2019-01-24T13:35:50.756Z,45.93
2019-01-24T13:38:19.928Z,43.93
2019-01-24T13:40:48.976Z,46.27
2019-01-24T13:43:25.818Z,48.67
2019-01-24T13:45:55.017Z,55.80
2019-01-24T13:48:24.286Z,51.70
2019-01-24T13:50:55.083Z,49.93
2019-01-24T13:53:24.242Z,43.80
2019-01-24T13:55:53.601Z,39.43
2019-01-24T13:58:22.520Z,45.37
2019-01-24T14:00:53.083Z,46.37
2019-01-24T14:03:25.104Z,47.70
2019-01-24T14:05:54.831Z,45.47
2019-01-24T14:08:23.845Z,44.67
2019-01-24T14:10:53.124Z,44.47
2019-01-24T14:13:24.005Z,51.57
2019-01-24T14:15:53.305Z,46.50
2019-01-24T14:18:22.725Z,47.10
2019-01-24T14:20:51.823Z,49.23
2019-01-24T14:23:21.006Z,49.27
2019-01-24T14:25:50.206Z,53.23
2019-01-24T14:28:20.149Z,48.87
2019-01-24T14:30:49.283Z,50.33
2019-01-24T14:33:21.504Z,57.27
2019-01-24T14:35:50.477Z,48.60
2019-01-24T14:38:19.818Z,41.90
2019-01-24T14:40:49.017Z,46.77
2019-01-24T14:43:19.678Z,47.30
2019-01-24T14:45:48.677Z,43.37
2019-01-24T14:48:17.676Z,43.03
2019-01-24T14:50:47.097Z,43.77
2019-01-24T14:53:16.328Z,42.50
2019-01-24T14:55:45.598Z,45.93
2019-01-24T14:58:15.356Z,47.87
2019-01-24T15:00:50.510Z,42.03
2019-01-24T15:03:23.409Z,47.87
2019-01-24T15:05:52.628Z,47.90
2019-01-24T15:08:21.821Z,47.67
2019-01-24T15:10:50.890Z,45.70
2019-01-24T15:13:20.328Z,46.33
2019-01-24T15:15:50.017Z,46.23
2019-01-24T15:18:19.148Z,50.60
2019-01-24T15:20:49.108Z,49.57
2019-01-24T15:23:18.388Z,45.07
2019-01-24T15:25:47.589Z,47.20
2019-01-24T15:28:17.226Z,46.57
2019-01-24T15:30:46.387Z,45.03
2019-01-24T15:35:49.388Z,38.50
2019-01-24T15:38:19.187Z,46.67
2019-01-24T15:40:48.308Z,49.17
2019-01-24T15:43:22.958Z,53.33
2019-01-24T15:46:02.959Z,50.73
2019-01-24T15:48:32.299Z,47.30
2019-01-24T15:51:03.237Z,46.60
2019-01-24T15:53:33.387Z,46.47
2019-01-24T15:56:04.473Z,55.87
2019-01-24T15:58:33.858Z,59.17
2019-01-24T16:01:05.000Z,59.03
2019-01-24T16:03:34.079Z,54.80
2019-01-24T16:06:03.546Z,61.80
2019-01-24T16:08:32.948Z,53.67
2019-01-24T16:11:02.062Z,54.53
2019-01-24T16:13:31.561Z,56.07
2019-01-24T16:16:04.262Z,64.10
2019-01-24T16:18:33.362Z,54.53
2019-01-24T16:21:02.861Z,54.33
2019-01-24T16:23:32.762Z,55.67
2019-01-24T16:26:02.227Z,54.77
2019-01-24T16:28:33.271Z,52.00
2019-01-24T16:31:03.844Z,53.57
2019-01-24T16:33:33.103Z,53.70
2019-01-24T16:36:02.102Z,60.47
2019-01-24T16:38:31.081Z,56.47
2019-01-24T16:41:02.176Z,53.03
2019-01-24T16:43:31.417Z,50.40
2019-01-24T16:46:01.261Z,54.40
2019-01-24T16:48:30.700Z,57.77
2019-01-24T16:51:00.260Z,54.30
2019-01-24T16:53:29.640Z,55.90
2019-01-24T16:56:00.942Z,59.07
2019-01-24T16:58:30.342Z,64.83
2019-01-24T17:01:01.702Z,64.50
2019-01-24T17:03:30.924Z,68.80
2019-01-24T17:06:04.769Z,66.13
2019-01-24T17:08:38.701Z,53.17
2019-01-24T17:11:10.062Z,57.53
2019-01-24T17:13:42.623Z,56.93
2019-01-24T17:16:11.862Z,57.10
2019-01-24T17:18:41.362Z,61.77
2019-01-24T17:21:11.323Z,58.73
2019-01-24T17:23:40.784Z,55.60
2019-01-24T17:26:09.987Z,57.30
2019-01-24T17:28:39.860Z,58.47
2019-01-24T17:31:09.104Z,56.87
2019-01-24T17:33:38.179Z,54.53
2019-01-24T17:36:07.581Z,53.43
2019-01-24T17:39:03.686Z,52.67
2019-01-24T17:41:32.889Z,59.23
2019-01-24T17:44:02.124Z,50.50
2019-01-24T17:46:31.061Z,48.70
2019-01-24T17:49:00.327Z,59.53
2019-01-24T17:51:29.461Z,66.63
2019-01-24T17:53:59.027Z,52.87
2019-01-24T17:56:32.985Z,53.77
2019-01-24T17:59:03.991Z,49.80
2019-01-24T18:01:32.982Z,55.07
2019-01-24T18:04:05.803Z,55.50
2019-01-24T18:06:35.182Z,62.53
2019-01-24T18:09:10.382Z,56.07
2019-01-24T18:11:40.226Z,48.60
2019-01-24T18:14:10.960Z,45.80
2019-01-24T18:16:40.382Z,41.20
2019-01-24T18:19:10.521Z,49.80
2019-01-24T18:21:39.860Z,37.47
2019-01-24T18:24:11.792Z,52.17
2019-01-24T18:26:40.743Z,47.53
2019-01-24T18:29:09.812Z,51.07
2019-01-24T18:31:38.863Z,49.93
2019-01-24T18:34:08.005Z,45.37
2019-01-24T18:36:37.085Z,41.37
2019-01-24T18:39:09.449Z,36.40
2019-01-24T18:41:38.584Z,30.33
2019-01-24T18:44:07.623Z,26.97
2019-01-24T18:46:36.803Z,32.23
2019-01-24T18:49:05.897Z,40.30
2019-01-24T18:51:35.222Z,33.50
2019-01-24T18:54:08.944Z,35.27
2019-01-24T18:56:38.327Z,34.50
2019-01-24T18:59:07.600Z,27.57
2019-01-24T19:01:36.849Z,20.63
2019-01-24T19:04:08.911Z,16.47
2019-01-24T19:06:38.167Z,18.00
2019-01-24T19:09:08.778Z,18.63
2019-01-24T19:11:40.466Z,16.63
2019-01-24T19:14:11.197Z,18.57
2019-01-24T19:16:40.175Z,16.53
2019-01-24T19:19:09.424Z,15.03
2019-01-24T19:21:43.093Z,17.87
2019-01-24T19:24:13.316Z,16.67
2019-01-24T19:26:45.621Z,17.40
2019-01-24T19:29:14.860Z,17.27
2019-01-24T19:31:44.241Z,15.70
2019-01-24T19:34:14.059Z,17.80
2019-01-24T19:36:44.006Z,19.60
2019-01-24T19:39:13.178Z,18.13
2019-01-24T19:41:42.315Z,16.43
2019-01-24T19:44:15.608Z,16.20
2019-01-24T19:46:42.608Z,17.20
2019-01-24T19:49:12.083Z,17.60
2019-01-24T19:51:48.482Z,21.33
2019-01-24T19:54:21.586Z,19.07
2019-01-24T19:56:51.491Z,13.83
2019-01-24T19:59:20.929Z,16.60
2019-01-24T20:01:51.732Z,14.80
2019-01-24T20:04:21.381Z,15.10
2019-01-24T20:06:52.250Z,19.43
2019-01-24T20:09:21.260Z,19.50
2019-01-24T20:11:50.462Z,19.33
2019-01-24T20:14:19.907Z,22.97
2019-01-24T20:16:49.968Z,22.50
2019-01-24T20:19:22.541Z,26.67
2019-01-24T20:21:52.327Z,22.90
2019-01-24T20:24:22.140Z,24.53
2019-01-24T20:26:53.145Z,21.40
2019-01-24T20:29:25.742Z,20.00
2019-01-24T20:31:59.166Z,18.33
2019-01-24T20:34:30.011Z,16.73
2019-01-24T20:37:10.068Z,17.67
2019-01-24T20:39:39.623Z,20.27
2019-01-24T20:42:09.612Z,15.53
2019-01-24T20:44:39.280Z,17.13
2019-01-24T20:47:08.747Z,15.87
2019-01-24T20:49:38.007Z,17.67
2019-01-24T20:52:07.366Z,16.87
2019-01-24T20:54:36.467Z,16.57
2019-01-24T20:57:06.007Z,15.70
2019-01-24T20:59:35.682Z,17.53
2019-01-24T21:02:06.477Z,17.90
2019-01-24T21:04:36.487Z,13.60
2019-01-24T21:07:09.448Z,18.60
2019-01-24T21:09:40.218Z,17.70
2019-01-24T21:12:09.496Z,19.93
2019-01-24T21:14:38.539Z,16.60
2019-01-24T21:17:08.871Z,17.83
2019-01-24T21:19:38.306Z,18.70
2019-01-24T21:22:08.949Z,16.43
2019-01-24T21:24:41.020Z,18.40
2019-01-24T21:27:11.998Z,18.30
2019-01-24T21:29:42.468Z,19.07
2019-01-24T21:32:11.817Z,20.57
2019-01-24T21:34:41.250Z,18.13
2019-01-24T21:37:13.585Z,19.10
2019-01-24T21:39:43.336Z,26.10
2019-01-24T21:42:12.438Z,22.37
2019-01-24T21:44:41.619Z,23.33
2019-01-24T21:47:12.318Z,20.00
2019-01-24T21:49:41.680Z,22.90
2019-01-24T21:52:17.917Z,22.70
2019-01-24T21:54:47.018Z,21.23
2019-01-24T21:57:16.467Z,24.27
2019-01-24T21:59:49.199Z,27.37
2019-01-24T22:02:18.429Z,24.70
2019-01-24T22:04:48.249Z,27.40
2019-01-24T22:07:17.450Z,25.70
2019-01-24T22:09:46.873Z,26.07
2019-01-24T22:12:16.232Z,28.03
2019-01-24T22:14:47.372Z,30.47
2019-01-24T22:17:18.090Z,30.00
2019-01-24T22:19:49.833Z,28.50
2019-01-24T22:22:19.149Z,32.80
2019-01-24T22:24:56.570Z,32.77
2019-01-24T22:27:27.650Z,27.60
2019-01-24T22:29:58.390Z,30.37
2019-01-24T22:32:28.069Z,34.90
2019-01-24T22:34:58.549Z,33.40
2019-01-24T22:37:27.608Z,33.57
2019-01-24T22:39:56.819Z,32.80
2019-01-24T22:42:26.264Z,29.33
2019-01-24T22:44:58.678Z,35.87
2019-01-24T22:47:27.978Z,33.37
2019-01-24T22:49:57.557Z,34.93
2019-01-24T22:52:26.638Z,34.20
2019-01-24T22:54:55.677Z,26.00
2019-01-24T22:57:25.499Z,33.13
2019-01-24T22:59:54.999Z,38.27
2019-01-24T23:02:24.323Z,35.70
2019-01-24T23:04:53.464Z,37.40
2019-01-24T23:07:22.822Z,40.30
2019-01-24T23:09:52.323Z,42.60
2019-01-24T23:12:21.884Z,43.17
2019-01-24T23:14:51.483Z,47.87
2019-01-24T23:17:20.646Z,43.77
2019-01-24T23:19:49.803Z,47.43
2019-01-24T23:22:18.882Z,48.60
2019-01-24T23:24:48.422Z,47.73
2019-01-24T23:27:17.682Z,45.97
2019-01-24T23:29:50.081Z,49.63
2019-01-24T23:32:24.141Z,52.30
2019-01-24T23:35:04.142Z,49.87
2019-01-24T23:37:34.562Z,49.40
2019-01-24T23:40:08.841Z,51.60
2019-01-24T23:42:39.981Z,49.73
2019-01-24T23:45:13.423Z,47.10
2019-01-24T23:47:42.679Z,49.43
2019-01-24T23:50:12.003Z,58.27
2019-01-24T23:52:41.368Z,50.00
2019-01-24T23:55:19.720Z,52.00
2019-01-24T23:57:50.358Z,54.07
